createdAt,value
2022-10-01T00:03:47.099Z,100.00
2022-10-01T00:06:18.016Z,100.00
2022-10-01T00:08:50.998Z,100.00
2022-10-01T00:11:23.863Z,100.00
2022-10-01T00:13:53.639Z,100.00
2022-10-01T00:16:24.324Z,100.00
2022-10-01T00:18:54.187Z,100.00
2022-10-01T00:21:32.633Z,100.00
2022-10-01T00:24:07.676Z,100.00
2022-10-01T00:26:43.206Z,100.00
2022-10-01T00:32:18.220Z,100.00
2022-10-01T00:34:53.309Z,100.00
2022-10-01T00:37:46.104Z,100.00
2022-10-01T00:40:27.175Z,100.00
2022-10-01T00:43:00.920Z,100.00
2022-10-01T00:48:56.759Z,100.00
2022-10-01T00:51:44.079Z,100.00
2022-10-01T00:54:37.040Z,100.00
2022-10-01T00:57:23.161Z,100.00
2022-10-01T01:00:17.380Z,100.00
2022-10-01T01:05:33.321Z,100.00
2022-10-01T01:08:58.607Z,100.00
2022-10-01T01:15:09.037Z,100.00
2022-10-01T01:21:30.677Z,100.00
2022-10-01T01:24:41.595Z,100.00
2022-10-01T01:27:27.393Z,100.00
2022-10-01T01:30:34.482Z,100.00
2022-10-01T01:33:13.562Z,100.00
2022-10-01T01:35:58.911Z,100.00
2022-10-01T01:38:44.463Z,100.00
2022-10-01T01:41:22.405Z,100.00
2022-10-01T01:47:31.642Z,100.00
2022-10-01T01:50:10.042Z,100.00
2022-10-01T01:53:08.409Z,100.00
2022-10-01T01:56:04.993Z,100.00
2022-10-01T01:58:39.811Z,100.00
2022-10-01T02:01:36.366Z,100.00
2022-10-01T02:08:04.085Z,100.00
2022-10-01T02:12:08.577Z,100.00
2022-10-01T02:17:12.571Z,100.00
2022-10-01T02:20:45.632Z,100.00
2022-10-01T02:24:14.038Z,100.00
2022-10-01T02:40:45.564Z,100.00
2022-10-01T02:43:22.257Z,100.00
2022-10-01T02:46:02.358Z,100.00
2022-10-01T02:48:32.180Z,100.00
2022-10-01T02:51:44.190Z,100.00
2022-10-01T02:54:48.715Z,100.00
2022-10-01T02:57:24.306Z,100.00
2022-10-01T02:59:59.736Z,100.00
2022-10-01T03:06:25.453Z,100.00
2022-10-01T03:09:08.866Z,100.00
2022-10-01T03:18:12.135Z,100.00
2022-10-01T03:21:32.638Z,100.00
2022-10-01T03:27:34.328Z,100.00
2022-10-01T03:30:06.587Z,100.00
2022-10-01T03:39:05.003Z,100.00
2022-10-01T03:42:06.090Z,100.00
2022-10-01T03:51:54.504Z,100.00
2022-10-01T03:57:23.628Z,100.00
2022-10-01T03:59:51.889Z,100.00
2022-10-01T04:02:51.572Z,100.00
2022-10-01T04:05:25.981Z,100.00
2022-10-01T04:07:58.212Z,100.00
2022-10-01T04:10:41.759Z,100.00
2022-10-01T04:13:26.097Z,100.00
2022-10-01T04:16:19.243Z,100.00
2022-10-01T04:18:49.819Z,100.00
2022-10-01T04:21:35.039Z,100.00
2022-10-01T04:24:12.651Z,100.00
2022-10-01T04:26:48.313Z,100.00
2022-10-01T04:29:20.206Z,100.00
2022-10-01T04:32:12.651Z,100.00
2022-10-01T04:37:58.413Z,100.00
2022-10-01T04:40:34.562Z,100.00
2022-10-01T04:46:37.437Z,100.00
2022-10-01T04:49:17.760Z,100.00
2022-10-01T04:52:08.548Z,100.00
2022-10-01T05:01:28.740Z,100.00
2022-10-01T05:03:58.140Z,100.00
2022-10-01T05:06:34.725Z,100.00
2022-10-01T05:09:21.011Z,100.00
2022-10-01T05:12:40.946Z,100.00
2022-10-01T05:16:17.628Z,100.00
2022-10-01T05:18:52.445Z,100.00
2022-10-01T05:22:01.417Z,100.00
2022-10-01T05:24:34.538Z,100.00
2022-10-01T05:27:19.672Z,100.00
2022-10-01T05:29:51.152Z,100.00
2022-10-01T05:37:03.647Z,100.00
2022-10-01T05:39:36.742Z,100.00
2022-10-01T05:43:09.951Z,100.00
2022-10-01T05:45:43.942Z,100.00
2022-10-01T05:49:07.834Z,100.00
2022-10-01T05:54:46.828Z,100.00
2022-10-01T05:57:56.266Z,100.00
2022-10-01T06:00:35.320Z,100.00
2022-10-01T06:03:27.187Z,100.00
2022-10-01T06:09:52.163Z,100.00
2022-10-01T06:12:44.128Z,100.00
2022-10-01T06:15:24.960Z,100.00
2022-10-01T06:17:55.069Z,100.00
2022-10-01T06:20:52.823Z,100.00
2022-10-01T06:23:34.783Z,100.00
2022-10-01T06:26:37.109Z,100.00
2022-10-01T06:32:38.451Z,100.00
2022-10-01T06:35:24.552Z,100.00
2022-10-01T06:38:14.280Z,100.00
2022-10-01T06:44:18.228Z,100.00
2022-10-01T06:47:05.701Z,100.00
2022-10-01T06:49:37.534Z,100.00
2022-10-01T06:52:36.864Z,100.00
2022-10-01T06:55:40.093Z,100.00
2022-10-01T06:58:33.387Z,100.00
2022-10-01T07:01:16.814Z,100.00
2022-10-01T07:04:15.291Z,100.00
2022-10-01T07:06:51.251Z,100.00
2022-10-01T07:09:25.767Z,100.00
2022-10-01T07:11:59.002Z,100.00
2022-10-01T07:15:15.000Z,100.00
2022-10-01T07:18:28.376Z,100.00
2022-10-01T07:21:19.921Z,100.00
2022-10-01T07:23:59.909Z,100.00
2022-10-01T07:26:32.030Z,100.00
2022-10-01T07:29:07.076Z,100.00
2022-10-01T07:31:41.015Z,100.00
2022-10-01T07:34:20.812Z,99.91
2022-10-01T07:37:23.481Z,99.49
2022-10-01T07:40:08.836Z,99.02
2022-10-01T07:45:29.632Z,97.88
2022-10-01T07:47:59.591Z,97.61
2022-10-01T07:51:06.785Z,97.18
2022-10-01T07:59:44.995Z,95.12
2022-10-01T08:03:51.931Z,93.73
2022-10-01T08:06:25.405Z,92.14
2022-10-01T08:12:28.852Z,88.63
2022-10-01T08:15:15.905Z,88.07
2022-10-01T08:17:56.624Z,87.34
2022-10-01T08:20:25.718Z,87.28
2022-10-01T08:24:07.974Z,87.25
2022-10-01T08:26:59.166Z,85.60
2022-10-01T08:35:38.130Z,82.88
2022-10-01T08:38:56.388Z,82.44
2022-10-01T08:43:12.975Z,81.97
2022-10-01T08:45:27.270Z,82.20
2022-10-01T08:48:14.569Z,81.29
2022-10-01T09:43:10.588Z,80.41
2022-10-01T09:45:49.232Z,80.04
2022-10-01T09:48:36.103Z,78.93
2022-10-01T09:51:17.322Z,78.97
2022-10-01T09:54:01.539Z,78.72
2022-10-01T09:56:42.074Z,78.69
2022-10-01T09:59:25.732Z,77.98
2022-10-01T10:02:02.547Z,77.58
2022-10-01T10:04:31.860Z,76.86
2022-10-01T10:07:08.086Z,76.83
2022-10-01T10:09:57.676Z,76.42
2022-10-01T10:12:50.621Z,75.80
2022-10-01T10:15:22.241Z,75.43
2022-10-01T10:18:23.950Z,75.35
2022-10-01T10:27:27.037Z,73.39
2022-10-01T10:30:12.715Z,71.55
2022-10-01T10:32:41.805Z,70.83
2022-10-01T10:35:23.938Z,70.44
2022-10-01T10:38:02.641Z,69.10
2022-10-01T10:41:01.671Z,68.21
2022-10-01T10:44:15.267Z,66.73
2022-10-01T10:46:46.430Z,66.44
2022-10-01T10:55:33.294Z,64.13
2022-10-01T10:58:25.096Z,63.93
2022-10-01T11:00:59.057Z,64.05
2022-10-01T11:04:03.857Z,63.82
2022-10-01T11:06:44.147Z,64.34
2022-10-01T11:09:49.650Z,64.75
2022-10-01T11:13:01.028Z,65.13
2022-10-01T11:15:47.482Z,65.42
2022-10-01T11:19:08.793Z,63.89
2022-10-01T11:22:14.589Z,63.85
2022-10-01T11:25:30.692Z,63.43
2022-10-01T11:28:30.907Z,62.30
2022-10-01T11:34:56.085Z,62.34
2022-10-01T11:41:06.218Z,59.81
2022-10-01T11:44:15.967Z,59.71
2022-10-01T11:47:18.504Z,59.40
2022-10-01T11:50:20.409Z,59.50
2022-10-01T11:52:59.744Z,59.19
2022-10-01T11:59:03.743Z,56.68
2022-10-01T12:01:45.161Z,55.71
2022-10-01T12:08:09.467Z,54.07
2022-10-01T12:10:48.408Z,54.18
2022-10-01T12:13:35.607Z,54.49
2022-10-01T12:16:30.356Z,53.58
2022-10-01T12:19:11.379Z,53.84
2022-10-01T12:22:06.449Z,53.24
2022-10-01T12:25:09.239Z,52.18
2022-10-01T12:28:04.792Z,52.35
2022-10-01T12:31:04.299Z,52.47
2022-10-01T12:34:11.748Z,50.61
2022-10-01T12:37:13.096Z,51.55
2022-10-01T12:40:35.968Z,51.72
2022-10-01T12:44:07.776Z,51.39
2022-10-01T12:47:24.363Z,51.29
2022-10-01T12:50:19.205Z,50.96
2022-10-01T12:53:34.401Z,50.13
2022-10-01T12:56:29.479Z,48.62
2022-10-01T12:59:58.453Z,48.16
2022-10-01T13:03:02.147Z,47.96
2022-10-01T13:06:39.878Z,48.01
2022-10-01T13:09:48.901Z,51.50
2022-10-01T13:16:15.617Z,52.79
2022-10-01T13:27:17.751Z,54.78
2022-10-01T13:30:22.259Z,55.58
2022-10-01T13:33:20.971Z,56.02
2022-10-01T13:36:28.238Z,56.97
2022-10-01T13:40:41.801Z,59.21
2022-10-01T14:32:35.837Z,57.99
2022-10-01T14:42:01.501Z,60.00
2022-10-01T14:44:59.350Z,60.66
2022-10-01T14:48:16.184Z,61.20
2022-10-01T14:54:13.074Z,60.43
2022-10-01T14:57:05.027Z,59.51
2022-10-01T15:06:42.730Z,52.34
2022-10-01T15:09:18.827Z,50.76
2022-10-01T15:12:02.216Z,50.56
2022-10-01T15:14:33.955Z,50.76
2022-10-01T15:17:32.431Z,51.08
2022-10-01T15:24:23.962Z,52.74
2022-10-01T17:05:55.535Z,56.49
2022-10-01T17:08:23.951Z,56.52
2022-10-01T17:11:15.451Z,56.76
2022-10-01T17:13:43.911Z,56.88
2022-10-01T17:16:15.653Z,57.30
2022-10-01T17:19:11.651Z,57.50
2022-10-01T17:21:42.927Z,57.22
2022-10-01T17:24:14.546Z,57.58
2022-10-01T17:26:46.843Z,57.96
2022-10-01T17:29:17.148Z,58.37
2022-10-01T17:32:15.651Z,58.62
2022-10-01T17:34:46.790Z,58.93
2022-10-01T17:37:17.095Z,59.04
2022-10-01T17:39:54.614Z,59.34
2022-10-01T17:42:36.849Z,59.50
2022-10-01T17:45:31.822Z,59.54
2022-10-01T17:48:01.249Z,59.82
2022-10-01T17:50:32.166Z,60.04
2022-10-01T17:53:08.519Z,60.27
2022-10-01T17:55:46.926Z,60.93
2022-10-01T17:58:16.492Z,61.24
2022-10-01T18:00:44.893Z,61.43
2022-10-01T18:03:14.778Z,61.85
2022-10-01T18:08:55.037Z,62.24
2022-10-01T18:11:28.522Z,62.63
2022-10-01T18:14:09.661Z,62.92
2022-10-01T18:16:38.447Z,63.12
2022-10-01T18:21:57.347Z,63.98
2022-10-01T18:24:28.570Z,64.22
2022-10-01T18:27:01.669Z,64.58
2022-10-01T18:29:30.035Z,64.64
2022-10-01T18:32:15.220Z,64.70
2022-10-01T18:34:48.656Z,64.87
2022-10-01T18:37:28.691Z,64.94
2022-10-01T18:40:16.293Z,65.00
2022-10-01T18:42:50.132Z,65.00
2022-10-01T18:45:26.639Z,65.00
2022-10-01T18:49:45.852Z,65.24
2022-10-01T18:52:37.965Z,65.33
2022-10-01T18:56:01.706Z,65.63
2022-10-01T18:59:06.865Z,66.31
2022-10-01T19:01:50.949Z,67.14
2022-10-01T19:04:43.813Z,67.76
2022-10-01T19:07:24.001Z,68.49
2022-10-01T19:10:01.701Z,69.33
2022-10-01T19:12:46.964Z,71.09
2022-10-01T19:15:38.989Z,72.15
2022-10-01T19:18:28.395Z,72.79
2022-10-01T19:21:08.651Z,73.59
2022-10-01T19:23:42.042Z,73.85
2022-10-01T19:26:19.581Z,74.48
2022-10-01T19:29:07.655Z,74.54
2022-10-01T19:31:44.931Z,75.56
2022-10-01T19:34:22.629Z,75.86
2022-10-01T19:37:07.061Z,76.65
2022-10-01T19:39:40.622Z,76.99
2022-10-01T19:42:16.013Z,77.02
2022-10-01T19:44:56.887Z,77.50
2022-10-01T19:47:33.120Z,77.59
2022-10-01T19:50:11.301Z,77.77
2022-10-01T19:52:49.510Z,78.25
2022-10-01T19:55:25.955Z,78.33
2022-10-01T19:57:54.463Z,78.48
2022-10-01T20:00:25.181Z,78.92
2022-10-01T20:03:04.351Z,78.96
2022-10-01T20:05:43.511Z,79.00
2022-10-01T20:08:18.277Z,79.38
2022-10-01T20:10:51.344Z,79.74
2022-10-01T20:13:37.465Z,79.88
2022-10-01T20:16:20.049Z,79.89
2022-10-01T20:18:57.693Z,80.30
2022-10-01T20:21:57.574Z,80.44
2022-10-01T20:24:41.955Z,80.66
2022-10-01T20:27:27.972Z,80.96
2022-10-01T20:30:04.905Z,80.47
2022-10-01T20:32:39.349Z,80.22
2022-10-01T20:35:21.033Z,80.28
2022-10-01T20:37:59.652Z,80.78
2022-10-01T20:40:32.889Z,81.16
2022-10-01T20:43:07.245Z,81.18
2022-10-01T20:45:36.707Z,81.55
2022-10-01T20:48:16.163Z,81.80
2022-10-01T20:50:47.842Z,82.00
2022-10-01T20:53:35.361Z,82.13
2022-10-01T20:56:06.658Z,82.32
2022-10-01T20:59:14.010Z,82.53
2022-10-01T21:01:50.952Z,82.41
2022-10-01T21:04:33.803Z,82.74
2022-10-01T21:07:11.987Z,82.76
2022-10-01T21:09:51.924Z,83.01
2022-10-01T21:12:34.400Z,83.07
2022-10-01T21:15:04.337Z,83.22
2022-10-01T21:17:56.818Z,83.42
2022-10-01T21:21:00.597Z,83.33
2022-10-01T21:24:06.706Z,83.89
2022-10-01T21:26:43.611Z,83.92
2022-10-01T21:29:42.253Z,84.32
2022-10-01T21:32:25.913Z,84.16
2022-10-01T21:35:23.818Z,84.26
2022-10-01T21:38:28.123Z,84.51
2022-10-01T21:41:16.282Z,84.28
2022-10-01T21:44:26.202Z,84.01
2022-10-01T21:47:04.599Z,84.21
2022-10-01T21:49:56.035Z,84.32
2022-10-01T21:52:37.371Z,84.41
2022-10-01T21:55:48.863Z,84.03
2022-10-01T21:58:33.900Z,84.41
2022-10-01T22:01:13.886Z,84.40
2022-10-01T22:03:49.672Z,84.50
2022-10-01T22:06:23.862Z,84.59
2022-10-01T22:11:51.214Z,84.32
2022-10-01T22:14:39.150Z,84.27
2022-10-01T22:17:17.290Z,84.18
2022-10-01T22:19:52.709Z,84.21
2022-10-01T22:22:31.320Z,83.85
2022-10-01T22:25:10.587Z,83.79
2022-10-01T22:27:51.139Z,83.77
2022-10-01T22:30:26.022Z,83.67
2022-10-01T22:33:08.147Z,83.58
2022-10-01T22:35:44.129Z,83.49
2022-10-01T22:38:19.987Z,83.78
2022-10-01T22:41:00.634Z,83.59
2022-10-01T22:43:30.914Z,83.78
2022-10-01T22:46:37.930Z,83.63
2022-10-01T22:49:15.135Z,83.34
2022-10-01T22:51:57.627Z,83.31
2022-10-01T22:55:05.257Z,83.22
2022-10-01T22:57:54.690Z,83.05
2022-10-01T23:00:23.285Z,82.75
2022-10-01T23:06:19.868Z,82.88
2022-10-01T23:09:01.682Z,83.31
2022-10-01T23:11:44.983Z,83.41
2022-10-01T23:14:30.321Z,83.31
2022-10-01T23:17:33.631Z,83.59
2022-10-01T23:20:15.853Z,83.83
2022-10-01T23:23:21.718Z,84.28
2022-10-01T23:26:08.647Z,84.37
2022-10-01T23:29:00.017Z,85.15
2022-10-01T23:31:38.128Z,85.39
2022-10-01T23:34:26.114Z,85.92
2022-10-01T23:37:16.547Z,85.96
2022-10-01T23:40:03.870Z,86.00
2022-10-01T23:42:43.642Z,86.28
2022-10-01T23:45:21.634Z,86.38
2022-10-01T23:47:57.564Z,86.74
2022-10-01T23:50:36.460Z,87.14
2022-10-01T23:53:23.102Z,87.56
2022-10-01T23:56:14.499Z,87.80
2022-10-01T23:58:48.729Z,87.62
